Airfield :







YOU CAN JOIN US ON...

 
LOGIN :

Register | Disclaimer

   EN    FR    IT 

 









Legend :    VFR   Marginal VFR   IFR   Intensive IFR   Very Intensive IFR
Visi :
Ceiling :
>= 8 km
>= 3000ft
5 to 8 km
1000 to 3000 ft
1500m to 5 km
500 to 1000 ft
800 to 1500m
200 to 500 ft
< 800m
< 200 ft
Symbols :   Thunderstorms  Fog  Heavy snow  Heavy precipitations  Wind > 20 kt







- Airport Elevation : 84 ft
- IATA code : YJT


CYJT - Stephenville

CURRENT METAR :
  • 211100Z 34004KT 15SM OVC025 12/10 A2980 RMK SC8 SLP093

EXPIRED METARs :
  • 211000Z 00000KT 15SM OVC025 11/09 A2977 RMK SC8 SLP083
  • 210900Z 06009KT 15SM FEW004 BKN011 BKN024 11/09 A2975 RMK SF2ST3SC2 SLP077
  • 210850Z 05008KT 15SM FEW004 BKN011 BKN024 11/09 A2974 RMK SF2ST3SC2 SLP073

TAF TAF CYJT
Valid from the 21 at 06:00 until the 22 at 06:00 UTC


210538Z 2106/2206 VRB03KT P6SM BKN090
TEMPO 2106/2112 4SM -DZ BR OVC008
FM211200 02010KT P6SM OVC015
FM211500 35015G25KT P6SM SCT020
FM220000 31006KT P6SM FEW030
BECMG 2200/2202 VRB03KT RMK NXT FCST BY 211200Z
No reported NOTAMs for that airfield.



MET'MAP, your aeronautical weather chart ! - Copyright ORBIFLY December 2007 - Disclaimer

ORBIFLY MET'MAP TEAM :

Programming & Development : Alexandra Zaïnal
Concept & Development : Baudouin d'Aumeries
Co-Development & Prog : Marc-Olivier Méhu
Technical & hardware support : Manuel Goepfert

Contact : metmap@orbifly.com




SOURCES & CREDITS :

   NOAA